Hopewell Estates, Illinois
Current Conditions -  °F | °C
As of 8:55 PM on Tuesday 21 Oct 2014 (Local Time) from KC75 Reporting Station
Clear Clear  
Wind Chill: 40°   Ceiling: Unl
Heat Index: 44°   Visibility: 10mi
Dew Point: 38°   Wind: 8mph
Humidity: 78%   Direction: 90°E
Pressure: 30.24"   Gusts: NA
Location:  41.0186°N, 89.479°W
Report Text: KC75 220155Z AUTO 09007KT 10SM CLR 07/03 A3024 RMK AO2 T00670031
Loading
Personal Weather Stations






























Interactive Weather Map
Tropical Storm Tracking
New forecast layout! Learn more

10-Day Weather Forecast

Advertisements
Track Severe Weather on mobile